Time;durP1;ratioP1;P1;durP2;ratioP2;P2;SDS_P1;SDS_P2;PMS_P1;PMS_P2;Temp;Humidity;BMP_temperature;BMP_pressure;BME280_temperature;BME280_humidity;BME280_pressure;Samples;Min_cycle;Max_cycle;Signal;HPM_P1;HPM_P2
2023/04/06 00:13:42;;;;;;;3.15;2.30;;;10.10;96.70;;;;;;5037574;28;20136;-73
2023/04/06 00:29:15;;;;;;;5.53;3.38;;;10.20;96.70;;;;;;4951994;28;20053;-73
2023/04/06 00:31:44;;;;;;;4.78;2.25;;;10.10;96.70;;;;;;4937607;28;20120;-74
2023/04/06 00:34:12;;;;;;;2.83;1.83;;;10.10;96.70;;;;;;4960549;28;20191;-73
2023/04/06 00:36:41;;;;;;;3.22;1.92;;;9.90;96.70;;;;;;4959708;28;20119;-74
2023/04/06 03:03:45;;;;;;;4.57;2.78;;;8.80;96.70;;;;;;5050506;28;20082;-73
2023/04/06 03:06:23;;;;;;;4.75;2.85;;;8.80;96.70;;;;;;5038937;28;20056;-73
2023/04/06 03:08:55;;;;;;;6.93;3.28;;;8.70;96.70;;;;;;5046504;28;20102;-73
2023/04/06 03:11:26;;;;;;;5.53;3.25;;;8.60;96.70;;;;;;5032985;28;20090;-73
2023/04/06 03:14:07;;;;;;;6.05;3.42;;;8.60;96.70;;;;;;5033091;28;20892;-74
2023/04/06 03:17:02;;;;;;;4.93;3.28;;;8.50;96.70;;;;;;5037327;28;20586;-74
2023/04/06 04:18:51;;;;;;;3.72;1.85;;;7.50;96.70;;;;;;5075309;28;20392;-73
2023/04/06 04:21:19;;;;;;;4.82;2.00;;;7.60;96.70;;;;;;5066456;28;20044;-73
2023/04/06 04:23:48;;;;;;;3.85;2.20;;;7.80;96.70;;;;;;5061492;28;20036;-73
2023/04/06 04:26:17;;;;;;;4.25;1.98;;;7.70;96.70;;;;;;5063837;28;20100;-73
2023/04/06 04:54:35;;;;;;;6.53;2.53;;;7.30;96.70;;;;;;5067888;28;20135;-74
2023/04/06 04:57:06;;;;;;;7.03;3.17;;;7.30;96.70;;;;;;5077180;28;20546;-74
2023/04/06 04:59:43;;;;;;;5.90;2.55;;;7.40;96.70;;;;;;5074277;28;20072;-73
2023/04/06 05:02:18;;;;;;;4.53;2.47;;;7.30;96.70;;;;;;5077030;28;20040;-74
2023/04/06 05:05:23;;;;;;;5.32;2.53;;;7.30;96.70;;;;;;5017584;28;20084;-73
2023/04/06 05:07:52;;;;;;;5.90;2.85;;;7.20;96.70;;;;;;5058187;28;20055;-73
2023/04/06 05:10:34;;;;;;;4.97;2.53;;;7.20;96.70;;;;;;5060614;28;20043;-73
2023/04/06 05:13:04;;;;;;;5.38;2.90;;;7.20;96.70;;;;;;5080150;28;20580;-74
2023/04/06 05:15:34;;;;;;;8.15;2.72;;;7.20;96.70;;;;;;5071952;28;20048;-74
2023/04/06 05:18:12;;;;;;;9.23;3.20;;;7.10;96.70;;;;;;5071465;28;20120;-73
2023/04/06 05:20:41;;;;;;;8.00;3.45;;;7.10;96.70;;;;;;5085543;28;20040;-73
2023/04/06 05:23:11;;;;;;;3.65;2.40;;;7.10;96.70;;;;;;5079851;28;20589;-73
2023/04/06 05:25:42;;;;;;;7.07;2.95;;;6.60;96.70;;;;;;5082789;28;20107;-74
2023/04/06 05:28:19;;;;;;;6.25;2.60;;;6.40;96.70;;;;;;5083257;28;20036;-73
2023/04/06 05:30:48;;;;;;;4.28;2.67;;;5.90;96.70;;;;;;5072716;28;20514;-73
2023/04/06 05:33:17;;;;;;;6.00;2.63;;;6.20;96.70;;;;;;5077565;28;20050;-74
2023/04/06 05:36:07;;;;;;;5.53;2.60;;;6.60;96.70;;;;;;5075455;28;20066;-73
2023/04/06 05:38:40;;;;;;;7.43;3.03;;;6.80;96.70;;;;;;5087228;28;20549;-73
2023/04/06 05:41:20;;;;;;;11.15;3.58;;;6.70;96.70;;;;;;5074497;28;20044;-74
2023/04/06 05:43:50;;;;;;;6.57;3.35;;;6.70;96.70;;;;;;5074845;28;20047;-74
2023/04/06 05:46:19;;;;;;;6.88;3.55;;;6.60;96.70;;;;;;5078179;28;20143;-73
2023/04/06 05:48:48;;;;;;;6.22;3.20;;;6.70;96.70;;;;;;5076343;28;20524;-74
2023/04/06 05:51:17;;;;;;;15.27;4.28;;;6.80;96.70;;;;;;5080505;28;20035;-74
2023/04/06 05:53:49;;;;;;;6.85;3.80;;;6.90;96.70;;;;;;5088139;28;20142;-73
2023/04/06 05:56:19;;;;;;;9.85;3.85;;;6.80;96.70;;;;;;5089465;28;20058;-74
2023/04/06 05:58:48;;;;;;;12.63;4.72;;;6.90;96.70;;;;;;5081645;28;20451;-73
2023/04/06 06:01:23;;;;;;;11.70;5.43;;;7.00;96.70;;;;;;5085161;28;20073;-74
2023/04/06 06:03:52;;;;;;;11.45;5.53;;;7.10;96.70;;;;;;5089419;28;20540;-73
2023/04/06 06:06:20;;;;;;;14.85;6.25;;;7.10;96.70;;;;;;5075135;28;20048;-73
2023/04/06 06:09:08;;;;;;;11.55;5.97;;;7.20;96.70;;;;;;5090153;28;20061;-74
2023/04/06 06:11:44;;;;;;;14.45;6.88;;;7.10;96.70;;;;;;5082020;28;20048;-75
2023/04/06 06:14:16;;;;;;;12.07;5.85;;;7.00;96.70;;;;;;5067436;28;20083;-74
2023/04/06 06:16:45;;;;;;;11.32;4.90;;;7.10;96.70;;;;;;5084960;28;20055;-74
2023/04/06 06:19:16;;;;;;;8.88;4.18;;;7.20;96.70;;;;;;5092897;28;20073;-75
2023/04/06 06:21:45;;;;;;;11.77;4.70;;;7.30;96.70;;;;;;5089580;28;20111;-74
2023/04/06 06:24:15;;;;;;;7.90;4.53;;;7.30;96.70;;;;;;5086502;28;20535;-75
2023/04/06 06:26:46;;;;;;;9.05;4.53;;;7.40;96.70;;;;;;5060802;28;20133;-73
2023/04/06 06:29:15;;;;;;;13.65;4.57;;;7.40;96.70;;;;;;5068888;28;20407;-74
2023/04/06 06:31:44;;;;;;;11.90;4.63;;;7.40;96.70;;;;;;5085390;28;20046;-75
2023/04/06 06:34:13;;;;;;;12.25;4.90;;;7.30;96.70;;;;;;5085211;28;20567;-75
2023/04/06 06:36:43;;;;;;;11.85;5.15;;;7.30;96.70;;;;;;5067393;28;20048;-74
2023/04/06 06:39:16;;;;;;;12.30;5.05;;;7.40;96.70;;;;;;5084087;28;20051;-74
2023/04/06 06:41:46;;;;;;;9.75;4.85;;;7.40;96.70;;;;;;5094239;28;21209;-74
2023/04/06 06:44:16;;;;;;;10.05;5.00;;;7.40;96.70;;;;;;5093745;28;20058;-74
2023/04/06 06:46:45;;;;;;;8.60;4.82;;;7.40;96.70;;;;;;5095586;27;20035;-74
2023/04/06 06:49:14;;;;;;;9.15;4.57;;;7.40;96.70;;;;;;5095044;28;20142;-75
2023/04/06 06:51:42;;;;;;;14.82;6.38;;;7.40;96.70;;;;;;5093271;28;20127;-74
2023/04/06 06:54:11;;;;;;;10.82;5.10;;;7.60;96.70;;;;;;5077582;28;20040;-74
2023/04/06 06:56:40;;;;;;;10.52;4.82;;;7.70;96.70;;;;;;5095249;28;20122;-74
2023/04/06 06:59:10;;;;;;;9.18;4.82;;;7.90;96.70;;;;;;5085358;28;20101;-75
2023/04/06 07:01:39;;;;;;;9.02;4.88;;;8.00;96.70;;;;;;5099797;28;20078;-74
2023/04/06 07:04:11;;;;;;;10.80;6.00;;;8.00;96.70;;;;;;5084563;28;20040;-75
2023/04/06 07:06:39;;;;;;;10.73;4.90;;;8.00;96.70;;;;;;5082938;28;20040;-75
2023/04/06 07:09:08;;;;;;;8.00;5.40;;;8.00;96.70;;;;;;5067047;28;20072;-75
2023/04/06 07:11:37;;;;;;;11.18;4.95;;;8.10;96.70;;;;;;5089091;28;20425;-75
2023/04/06 07:14:06;;;;;;;7.68;4.25;;;8.20;96.70;;;;;;5093704;28;20039;-75
2023/04/06 07:16:37;;;;;;;10.57;4.70;;;8.40;96.70;;;;;;5094353;28;20043;-74
2023/04/06 07:19:06;;;;;;;8.43;4.28;;;8.40;96.70;;;;;;5085422;28;20036;-74
2023/04/06 07:21:35;;;;;;;8.07;3.83;;;8.40;96.70;;;;;;5078142;28;20039;-75
2023/04/06 07:24:04;;;;;;;8.75;4.93;;;8.40;96.70;;;;;;5096442;28;20051;-75
2023/04/06 07:26:33;;;;;;;7.22;4.65;;;8.50;96.70;;;;;;5092688;28;20071;-75
2023/04/06 07:29:01;;;;;;;6.80;4.30;;;8.60;96.70;;;;;;5091702;27;20046;-75
2023/04/06 07:31:30;;;;;;;8.45;4.53;;;8.70;96.70;;;;;;5093351;28;20501;-74
2023/04/06 07:34:01;;;;;;;9.60;4.70;;;8.80;96.70;;;;;;5066557;28;20051;-75
2023/04/06 07:36:30;;;;;;;7.32;4.43;;;8.80;96.70;;;;;;5090848;28;20413;-74
2023/04/06 07:38:59;;;;;;;9.23;4.63;;;8.90;96.70;;;;;;5098255;28;20051;-76
2023/04/06 07:41:28;;;;;;;9.40;4.45;;;8.80;96.70;;;;;;5068566;28;20059;-74
2023/04/06 07:43:57;;;;;;;6.75;4.28;;;8.80;96.70;;;;;;5100366;28;20108;-75
2023/04/06 07:46:25;;;;;;;7.63;4.53;;;9.00;96.70;;;;;;5065915;28;20060;-74
2023/04/06 07:48:57;;;;;;;8.00;3.72;;;9.00;96.70;;;;;;5080040;28;20052;-75
2023/04/06 07:51:30;;;;;;;6.78;4.07;;;9.10;96.70;;;;;;5090681;28;20048;-74
2023/04/06 07:53:59;;;;;;;6.65;4.22;;;9.20;96.70;;;;;;5090692;28;20040;-74
2023/04/06 07:56:28;;;;;;;8.18;4.63;;;9.20;96.70;;;;;;5093530;28;20113;-75
2023/04/06 07:58:57;;;;;;;25.88;5.68;;;9.20;96.70;;;;;;5095607;28;20044;-76
2023/04/06 08:01:28;;;;;;;12.77;4.88;;;9.30;96.70;;;;;;5084201;28;20055;-75
2023/04/06 08:03:58;;;;;;;8.13;4.28;;;9.40;96.70;;;;;;5103101;28;20436;-75
2023/04/06 08:06:28;;;;;;;7.50;4.20;;;9.50;96.70;;;;;;5093200;28;20048;-74
2023/04/06 08:08:57;;;;;;;8.65;4.32;;;9.60;96.70;;;;;;5082362;28;20050;-74
2023/04/06 08:11:26;;;;;;;7.75;4.50;;;9.70;96.70;;;;;;5080538;28;20040;-74
2023/04/06 08:13:58;;;;;;;6.78;4.18;;;9.70;96.70;;;;;;5084069;28;20050;-75
2023/04/06 08:16:27;;;;;;;7.22;4.63;;;9.80;96.70;;;;;;5085489;28;20051;-74
2023/04/06 08:18:55;;;;;;;5.63;3.75;;;9.70;96.70;;;;;;5092519;28;20043;-74
2023/04/06 08:21:24;;;;;;;7.88;4.80;;;9.80;96.70;;;;;;5092409;28;20057;-74
2023/04/06 08:23:55;;;;;;;8.98;4.55;;;9.90;96.70;;;;;;5096352;28;20040;-75
2023/04/06 08:26:23;;;;;;;8.15;3.88;;;10.00;96.70;;;;;;5098428;28;20090;-75
2023/04/06 08:28:52;;;;;;;8.73;4.60;;;10.10;96.70;;;;;;5083633;28;20042;-74
2023/04/06 08:31:21;;;;;;;9.38;4.35;;;10.20;96.70;;;;;;5082316;28;20040;-74
2023/04/06 08:33:50;;;;;;;6.53;4.13;;;10.20;96.70;;;;;;5092799;28;20077;-74
2023/04/06 08:36:22;;;;;;;8.93;4.50;;;10.20;96.70;;;;;;5083511;28;20097;-74
2023/04/06 08:38:51;;;;;;;7.93;4.00;;;10.30;96.70;;;;;;5085214;28;20046;-74
2023/04/06 08:41:21;;;;;;;7.20;4.05;;;10.30;96.70;;;;;;5090935;28;20439;-74
2023/04/06 08:43:54;;;;;;;5.78;3.22;;;10.40;96.70;;;;;;5083872;28;20044;-74
2023/04/06 08:46:29;;;;;;;6.00;3.65;;;10.50;96.70;;;;;;5081698;28;20052;-75
2023/04/06 08:48:59;;;;;;;8.27;3.30;;;10.70;96.70;;;;;;5087998;28;20047;-75
2023/04/06 08:51:30;;;;;;;6.45;4.25;;;10.70;96.70;;;;;;5099488;28;20051;-75
2023/04/06 08:53:59;;;;;;;5.35;3.55;;;10.80;96.70;;;;;;5090562;28;20047;-75
2023/04/06 08:56:30;;;;;;;5.35;3.45;;;10.90;96.70;;;;;;5089993;28;20055;-77
2023/04/06 08:59:00;;;;;;;4.10;3.05;;;11.00;96.70;;;;;;5100293;28;20096;-75
2023/04/06 09:01:30;;;;;;;5.22;3.60;;;11.10;96.70;;;;;;5088912;28;20498;-75
2023/04/06 09:04:04;;;;;;;5.75;3.63;;;11.20;96.70;;;;;;5080210;28;20135;-75
2023/04/06 09:06:36;;;;;;;6.45;3.45;;;11.30;96.70;;;;;;5089709;28;20049;-75
2023/04/06 09:09:05;;;;;;;7.68;4.20;;;11.30;96.70;;;;;;5085063;28;20046;-74
2023/04/06 09:11:45;;;;;;;6.75;4.38;;;11.40;96.70;;;;;;5101053;28;20092;-74
2023/04/06 09:14:15;;;;;;;6.53;3.75;;;11.50;96.70;;;;;;5099547;28;20051;-75
2023/04/06 09:16:46;;;;;;;5.32;3.30;;;11.60;96.70;;;;;;5082053;28;20048;-75
2023/04/06 09:19:14;;;;;;;7.15;3.60;;;11.50;96.70;;;;;;5098028;28;20048;-76
2023/04/06 09:21:42;;;;;;;6.28;3.45;;;11.50;96.70;;;;;;5083146;28;20489;-74
2023/04/06 09:24:11;;;;;;;5.25;3.70;;;11.60;96.70;;;;;;5090250;28;20154;-74
2023/04/06 09:26:48;;;;;;;7.60;3.33;;;11.70;96.70;;;;;;5081911;28;20067;-75
2023/04/06 09:29:24;;;;;;;5.70;3.58;;;11.80;96.70;;;;;;5092168;28;20127;-74
2023/04/06 09:32:01;;;;;;;6.35;3.53;;;12.00;96.70;;;;;;5068068;28;20056;-73
2023/04/06 09:34:30;;;;;;;5.05;3.40;;;12.10;96.70;;;;;;5100882;28;20131;-75
2023/04/06 09:36:58;;;;;;;5.85;3.38;;;12.20;96.70;;;;;;5100887;28;20054;-75
2023/04/06 09:39:26;;;;;;;6.32;3.63;;;12.30;96.70;;;;;;5091664;28;20524;-74
2023/04/06 09:41:56;;;;;;;4.88;2.65;;;12.40;96.70;;;;;;5082004;28;20135;-74
2023/04/06 09:44:25;;;;;;;7.18;3.40;;;12.50;96.70;;;;;;5081569;28;20040;-75
2023/04/06 09:46:55;;;;;;;6.32;3.20;;;12.70;96.70;;;;;;5080938;28;20056;-75
2023/04/06 09:49:30;;;;;;;6.57;3.38;;;12.70;96.70;;;;;;5089173;28;20043;-75
2023/04/06 09:52:01;;;;;;;8.63;3.10;;;12.90;96.70;;;;;;5088803;28;20044;-74
2023/04/06 09:54:30;;;;;;;7.40;3.30;;;13.00;96.70;;;;;;5065745;28;20059;-75
2023/04/06 09:57:08;;;;;;;6.55;3.00;;;13.00;96.70;;;;;;5087012;28;20167;-76
2023/04/06 09:59:45;;;;;;;4.32;3.40;;;13.20;96.70;;;;;;5088630;28;20090;-75
2023/04/06 10:02:27;;;;;;;5.72;3.60;;;13.30;96.70;;;;;;5088967;28;20045;-73
2023/04/06 10:05:01;;;;;;;6.90;4.18;;;13.30;96.70;;;;;;5086297;28;20048;-74
2023/04/06 10:07:31;;;;;;;5.50;3.42;;;13.50;96.70;;;;;;5091064;28;20449;-74
2023/04/06 10:10:00;;;;;;;8.02;3.97;;;13.60;96.70;;;;;;5092225;28;20173;-74
2023/04/06 10:12:30;;;;;;;6.03;3.47;;;13.70;96.70;;;;;;5089442;28;20040;-74
2023/04/06 10:14:59;;;;;;;5.63;3.38;;;13.80;96.70;;;;;;5080797;28;20054;-74
2023/04/06 10:17:27;;;;;;;5.10;3.58;;;13.80;96.70;;;;;;5081902;28;20048;-75
2023/04/06 10:20:02;;;;;;;6.00;3.40;;;13.70;96.70;;;;;;5080082;28;20048;-74
2023/04/06 10:22:44;;;;;;;3.70;3.28;;;13.80;96.70;;;;;;5081604;28;20482;-74
2023/04/06 10:25:12;;;;;;;3.88;2.90;;;13.90;96.70;;;;;;5083827;28;20057;-74
2023/04/06 10:27:42;;;;;;;5.07;3.42;;;14.00;96.70;;;;;;5096006;28;20410;-74
2023/04/06 10:30:15;;;;;;;7.10;3.47;;;14.20;96.70;;;;;;5081862;28;20066;-74
2023/04/06 10:32:43;;;;;;;4.55;3.00;;;14.20;96.70;;;;;;5081241;28;20497;-75
2023/04/06 10:35:15;;;;;;;6.05;2.97;;;14.30;96.70;;;;;;5089753;28;20125;-74
2023/04/06 10:37:49;;;;;;;3.97;2.83;;;14.30;96.70;;;;;;5070397;28;20162;-74
2023/04/06 10:40:24;;;;;;;8.02;3.25;;;14.40;96.10;;;;;;5089382;28;20047;-74
2023/04/06 10:42:55;;;;;;;10.32;3.65;;;14.30;96.00;;;;;;5087889;28;20067;-74
2023/04/06 10:45:25;;;;;;;5.63;3.10;;;14.50;95.90;;;;;;5097887;28;20051;-72
2023/04/06 10:47:54;;;;;;;3.30;2.40;;;14.80;95.10;;;;;;5083296;28;20489;-74
2023/04/06 10:50:23;;;;;;;5.05;2.75;;;14.80;93.30;;;;;;5077096;28;20078;-74
2023/04/06 10:52:59;;;;;;;3.00;2.58;;;14.80;92.60;;;;;;5088503;28;20474;-74
2023/04/06 10:55:29;;;;;;;3.50;2.50;;;15.00;92.30;;;;;;5083644;28;20098;-75
2023/04/06 10:57:58;;;;;;;5.65;2.72;;;15.10;92.20;;;;;;5086295;28;20040;-74
2023/04/06 11:00:27;;;;;;;3.72;2.70;;;15.20;91.80;;;;;;5090773;28;20714;-73
2023/04/06 11:03:10;;;;;;;3.58;2.55;;;15.20;91.90;;;;;;5071077;28;20078;-73
2023/04/06 11:05:38;;;;;;;3.42;2.67;;;15.20;92.20;;;;;;5083731;28;20032;-73
2023/04/06 11:08:07;;;;;;;3.53;2.40;;;15.20;92.50;;;;;;5075211;28;20048;-73
2023/04/06 11:10:36;;;;;;;5.18;3.13;;;15.20;92.10;;;;;;5093960;28;20063;-73
2023/04/06 11:13:07;;;;;;;4.15;2.15;;;15.30;92.40;;;;;;5095667;28;20056;-73
2023/04/06 11:15:35;;;;;;;4.65;2.63;;;15.50;91.40;;;;;;5077104;28;20496;-73
2023/04/06 11:18:06;;;;;;;2.40;2.15;;;15.50;91.30;;;;;;5083632;28;20152;-73
2023/04/06 11:20:35;;;;;;;4.55;2.30;;;15.60;90.50;;;;;;5087157;28;20048;-73
2023/04/06 11:23:03;;;;;;;3.97;2.03;;;15.80;89.40;;;;;;5091005;28;20036;-73
2023/04/06 11:25:32;;;;;;;4.63;2.40;;;15.90;88.20;;;;;;5086201;28;21321;-73
2023/04/06 11:28:01;;;;;;;3.63;2.45;;;16.00;87.80;;;;;;5076650;28;20047;-73
2023/04/06 11:30:31;;;;;;;2.72;2.08;;;16.10;87.40;;;;;;5100271;28;20108;-74
2023/04/06 11:33:02;;;;;;;2.75;1.88;;;16.10;87.00;;;;;;5075091;28;20036;-73
2023/04/06 11:35:32;;;;;;;3.65;2.13;;;16.20;86.20;;;;;;5062228;28;20040;-73
2023/04/06 11:38:04;;;;;;;4.85;2.47;;;16.30;87.40;;;;;;5080153;28;20063;-73
2023/04/06 11:40:33;;;;;;;4.85;2.78;;;16.30;86.40;;;;;;5091656;28;20060;-73
2023/04/06 11:43:03;;;;;;;6.05;2.75;;;16.50;86.60;;;;;;5083563;28;20051;-73
2023/04/06 11:45:42;;;;;;;3.83;2.13;;;16.60;86.00;;;;;;5087991;28;20044;-73
2023/04/06 11:48:19;;;;;;;3.78;2.00;;;16.60;84.70;;;;;;5080560;28;20047;-73
2023/04/06 11:50:48;;;;;;;4.90;2.63;;;16.50;82.80;;;;;;5095585;28;20079;-73
2023/04/06 11:53:17;;;;;;;5.63;2.10;;;16.60;82.20;;;;;;5081807;28;20075;-73
2023/04/06 11:55:47;;;;;;;4.78;2.25;;;16.60;80.80;;;;;;5090845;28;20050;-74
2023/04/06 11:58:15;;;;;;;5.55;3.88;;;16.50;80.50;;;;;;5090001;28;20080;-73
2023/04/06 12:00:46;;;;;;;3.80;2.30;;;16.60;81.00;;;;;;5088575;28;20056;-73
2023/04/06 12:03:15;;;;;;;2.80;2.05;;;16.80;81.10;;;;;;5066121;28;20130;-73
2023/04/06 12:05:45;;;;;;;3.00;1.85;;;17.00;81.70;;;;;;5079601;28;20040;-75
2023/04/06 12:08:13;;;;;;;3.25;1.83;;;17.00;81.60;;;;;;5080976;28;20404;-73
2023/04/06 12:10:41;;;;;;;2.30;1.27;;;17.20;80.70;;;;;;5066984;28;20039;-73
2023/04/06 12:13:10;;;;;;;4.53;2.88;;;17.10;75.50;;;;;;5095272;28;20040;-73
2023/04/06 12:15:39;;;;;;;2.28;1.80;;;16.90;76.40;;;;;;5077657;28;20036;-74
2023/04/06 12:18:08;;;;;;;3.40;2.08;;;17.10;78.50;;;;;;5083632;28;20048;-74
2023/04/06 12:20:37;;;;;;;3.58;2.05;;;17.20;77.30;;;;;;5099482;28;20067;-74
2023/04/06 12:23:05;;;;;;;5.30;2.50;;;17.40;78.20;;;;;;5085051;28;20524;-76
2023/04/06 12:25:34;;;;;;;4.05;2.40;;;17.50;78.60;;;;;;5081715;28;20047;-74
2023/04/06 12:28:02;;;;;;;2.50;1.90;;;17.30;79.20;;;;;;5074705;28;20043;-73
2023/04/06 12:30:31;;;;;;;3.80;2.35;;;17.30;79.50;;;;;;5083268;28;20112;-74
2023/04/06 12:33:00;;;;;;;3.88;2.20;;;17.30;78.30;;;;;;5070121;28;20036;-74
2023/04/06 12:35:34;;;;;;;3.53;2.40;;;17.40;77.90;;;;;;5067079;28;20056;-74
2023/04/06 12:38:02;;;;;;;4.00;2.08;;;17.60;79.40;;;;;;5076844;28;20043;-74
2023/04/06 12:40:30;;;;;;;5.80;3.30;;;17.70;80.30;;;;;;5090531;28;20461;-74
2023/04/06 12:42:59;;;;;;;3.78;2.63;;;17.80;78.80;;;;;;5089324;28;20047;-74
2023/04/06 12:45:27;;;;;;;4.05;2.30;;;17.80;78.30;;;;;;5073875;28;20098;-73
2023/04/06 12:47:55;;;;;;;4.03;2.60;;;17.70;78.00;;;;;;5085458;28;20056;-73
2023/04/06 12:50:24;;;;;;;5.40;3.22;;;17.40;79.70;;;;;;5075416;28;20040;-74
2023/04/06 12:52:54;;;;;;;4.28;2.67;;;17.50;79.90;;;;;;5082604;28;20139;-74
2023/04/06 12:55:22;;;;;;;8.07;2.90;;;17.50;80.10;;;;;;5080000;28;20078;-73
2023/04/06 12:57:51;;;;;;;4.25;2.95;;;17.50;80.30;;;;;;5079980;28;20047;-72
2023/04/06 13:00:20;;;;;;;5.57;2.85;;;17.50;80.90;;;;;;5063834;28;20043;-74
2023/04/06 13:02:49;;;;;;;3.83;2.95;;;17.50;81.80;;;;;;5066466;28;20044;-73
2023/04/06 13:05:18;;;;;;;6.10;3.40;;;17.50;82.10;;;;;;5081996;28;20067;-73
2023/04/06 13:07:47;;;;;;;6.20;3.22;;;17.60;82.50;;;;;;5081137;28;20056;-74
2023/04/06 13:10:16;;;;;;;5.70;3.38;;;17.70;82.00;;;;;;5091430;28;20039;-73
2023/04/06 13:12:45;;;;;;;13.15;3.90;;;17.80;82.00;;;;;;5089831;28;20031;-74
2023/04/06 13:15:13;;;;;;;3.83;3.00;;;17.90;81.70;;;;;;5093064;28;20730;-74
2023/04/06 13:17:41;;;;;;;4.28;3.17;;;17.80;81.60;;;;;;5077985;28;20047;-74
2023/04/06 13:20:10;;;;;;;6.72;3.45;;;17.80;82.10;;;;;;5082815;28;20485;-74
2023/04/06 13:22:38;;;;;;;5.60;3.83;;;17.70;83.00;;;;;;5089301;28;20039;-74
2023/04/06 13:25:07;;;;;;;4.03;3.15;;;17.80;83.40;;;;;;5083949;28;20050;-74
2023/04/06 13:27:37;;;;;;;5.93;3.67;;;17.90;83.80;;;;;;5085254;28;20401;-74
2023/04/06 13:30:06;;;;;;;6.70;3.55;;;17.80;83.30;;;;;;5090731;28;20043;-73
2023/04/06 13:32:36;;;;;;;5.25;3.15;;;17.80;84.30;;;;;;5087091;28;20039;-73
2023/04/06 13:35:06;;;;;;;10.45;3.70;;;17.70;83.50;;;;;;5082893;28;20036;-73
2023/04/06 13:37:36;;;;;;;5.53;2.72;;;17.60;85.20;;;;;;5081224;28;20052;-73
2023/04/06 13:40:05;;;;;;;4.22;2.75;;;17.50;86.10;;;;;;5064335;28;20105;-74
2023/04/06 13:42:34;;;;;;;5.00;2.53;;;17.30;85.60;;;;;;5079790;28;20044;-73
2023/04/06 13:45:05;;;;;;;4.25;2.92;;;17.30;86.10;;;;;;5090991;28;20523;-74
2023/04/06 13:47:34;;;;;;;7.97;3.22;;;17.20;86.20;;;;;;5093296;28;20488;-73
2023/04/06 13:50:03;;;;;;;4.03;2.78;;;17.40;87.50;;;;;;5097947;28;20050;-73
2023/04/06 13:52:31;;;;;;;3.83;2.50;;;17.60;86.20;;;;;;5083420;28;20047;-73
2023/04/06 13:55:00;;;;;;;4.82;2.33;;;17.60;85.00;;;;;;5080811;28;20036;-74
2023/04/06 13:57:29;;;;;;;4.05;2.92;;;17.50;84.50;;;;;;5082060;28;20086;-74
2023/04/06 13:59:57;;;;;;;3.50;2.30;;;17.80;84.80;;;;;;5082126;28;20654;-73
2023/04/06 14:02:27;;;;;;;2.60;2.20;;;18.10;84.30;;;;;;5080475;28;20055;-74
2023/04/06 14:04:56;;;;;;;4.10;2.22;;;18.10;83.40;;;;;;5082413;28;20044;-74
2023/04/06 14:07:24;;;;;;;3.45;1.92;;;18.20;83.30;;;;;;5091775;28;20050;-74
2023/04/06 14:09:53;;;;;;;2.72;2.10;;;18.30;84.00;;;;;;5090666;28;20044;-73
2023/04/06 14:12:21;;;;;;;3.30;2.00;;;18.20;84.80;;;;;;5094014;28;20550;-73
2023/04/06 14:14:49;;;;;;;3.08;1.80;;;18.50;85.40;;;;;;5097032;28;20054;-73
2023/04/06 14:17:17;;;;;;;4.35;1.92;;;18.30;84.50;;;;;;5081967;28;20064;-74
2023/04/06 14:19:48;;;;;;;2.20;1.52;;;18.30;84.90;;;;;;5098355;28;20159;-74
2023/04/06 14:22:18;;;;;;;6.10;2.20;;;18.30;84.40;;;;;;5080319;28;20143;-74
2023/04/06 14:24:46;;;;;;;2.88;1.92;;;18.20;83.60;;;;;;5084343;28;20108;-73
2023/04/06 14:27:14;;;;;;;2.53;1.67;;;18.40;84.10;;;;;;5097275;28;20039;-74
2023/04/06 14:29:43;;;;;;;3.17;1.55;;;18.70;83.80;;;;;;5083038;28;20044;-73
2023/04/06 14:32:11;;;;;;;3.30;1.83;;;18.80;82.80;;;;;;5087355;28;20039;-73
2023/04/06 14:34:39;;;;;;;3.92;1.77;;;19.00;82.40;;;;;;5084070;28;20616;-74
2023/04/06 14:37:09;;;;;;;5.32;2.95;;;19.20;82.00;;;;;;5084145;28;20141;-73
2023/04/06 14:39:37;;;;;;;5.38;2.58;;;19.10;82.10;;;;;;5085984;28;20565;-73
2023/04/06 14:42:05;;;;;;;3.78;2.70;;;19.20;80.50;;;;;;5094605;28;20123;-74
2023/04/06 14:44:36;;;;;;;2.88;2.15;;;19.40;80.00;;;;;;5092991;28;20046;-74
2023/04/06 14:47:04;;;;;;;6.18;1.85;;;19.60;79.90;;;;;;5097594;28;20626;-73
2023/04/06 14:49:33;;;;;;;2.38;1.60;;;19.90;80.00;;;;;;5101449;28;20485;-74
2023/04/06 14:52:02;;;;;;;2.30;1.40;;;19.90;80.50;;;;;;5087619;28;20109;-74
2023/04/06 14:54:33;;;;;;;2.97;1.67;;;20.10;80.40;;;;;;5085603;28;20118;-74
2023/04/06 14:57:01;;;;;;;3.03;1.80;;;19.80;79.60;;;;;;5068596;28;20043;-74
2023/04/06 14:59:32;;;;;;;7.15;2.28;;;19.70;80.30;;;;;;5087710;28;20040;-74
2023/04/06 15:02:06;;;;;;;6.10;2.22;;;20.00;80.50;;;;;;5081146;28;20093;-74
2023/04/06 15:04:36;;;;;;;4.30;1.85;;;19.80;81.30;;;;;;5101038;28;20451;-74
2023/04/06 15:07:04;;;;;;;6.40;1.73;;;19.80;81.70;;;;;;5096552;28;20044;-74
2023/04/06 15:09:35;;;;;;;4.90;1.83;;;19.70;82.60;;;;;;5076317;28;20142;-74
2023/04/06 15:12:08;;;;;;;4.57;1.67;;;20.00;82.60;;;;;;5083532;28;20044;-73
2023/04/06 15:14:44;;;;;;;3.30;1.83;;;20.00;82.60;;;;;;5095863;28;20723;-74
2023/04/06 15:17:12;;;;;;;6.30;1.80;;;20.10;82.70;;;;;;5102145;28;20043;-74
2023/04/06 15:19:40;;;;;;;4.03;1.67;;;20.00;83.20;;;;;;5100001;28;20043;-73
2023/04/06 15:22:08;;;;;;;5.38;1.88;;;19.40;83.80;;;;;;5083325;28;20068;-73
2023/04/06 15:24:38;;;;;;;2.97;1.67;;;18.50;85.10;;;;;;5083338;28;20060;-74
2023/04/06 15:27:06;;;;;;;3.30;1.95;;;18.10;85.90;;;;;;5092779;28;20697;-74
2023/04/06 15:29:35;;;;;;;2.42;1.48;;;18.50;85.60;;;;;;5070995;28;20170;-74
2023/04/06 15:32:03;;;;;;;7.10;1.77;;;18.60;85.00;;;;;;5083463;28;20063;-74
2023/04/06 15:34:33;;;;;;;4.15;1.60;;;18.40;85.80;;;;;;5082316;28;20490;-74
2023/04/06 15:37:03;;;;;;;3.08;1.23;;;18.90;85.20;;;;;;5095345;28;20443;-73
2023/04/06 15:39:32;;;;;;;3.40;1.63;;;17.80;85.60;;;;;;5085331;28;20051;-73
2023/04/06 15:42:01;;;;;;;5.03;2.30;;;18.30;86.30;;;;;;5097417;28;20039;-74
2023/04/06 15:44:30;;;;;;;4.47;1.80;;;18.90;85.40;;;;;;5095266;28;20044;-74
2023/04/06 15:46:58;;;;;;;4.10;1.48;;;18.90;85.50;;;;;;5084865;28;20036;-74
2023/04/06 15:49:27;;;;;;;2.83;1.42;;;19.50;85.20;;;;;;5082385;28;20048;-74
2023/04/06 15:51:55;;;;;;;1.75;1.23;;;19.30;84.60;;;;;;5082855;28;20040;-74
2023/04/06 15:54:23;;;;;;;2.63;1.27;;;18.60;85.40;;;;;;5089820;28;20048;-73
2023/04/06 15:56:51;;;;;;;3.58;1.70;;;18.30;86.60;;;;;;5097433;28;20072;-73
2023/04/06 15:59:21;;;;;;;5.30;1.30;;;17.50;88.40;;;;;;5101278;28;20079;-74
2023/04/06 16:01:49;;;;;;;3.83;1.85;;;17.40;90.00;;;;;;5084587;28;20128;-73
2023/04/06 16:04:17;;;;;;;6.47;1.70;;;17.20;91.30;;;;;;5084858;28;20077;-74
2023/04/06 16:06:45;;;;;;;5.55;1.73;;;16.70;92.40;;;;;;5089354;28;20257;-73
2023/04/06 16:09:14;;;;;;;1.70;1.25;;;16.20;94.10;;;;;;5084354;28;20051;-74
2023/04/06 16:11:42;;;;;;;3.80;2.97;;;15.80;95.00;;;;;;5082707;28;20047;-74
2023/04/06 16:14:11;;;;;;;7.38;2.10;;;15.80;95.70;;;;;;5091211;28;20066;-74
2023/04/06 16:16:42;;;;;;;3.75;2.00;;;15.80;95.90;;;;;;5100749;28;20388;-73
2023/04/06 16:19:10;;;;;;;3.53;1.83;;;15.90;95.90;;;;;;5086266;28;20460;-74
2023/04/06 16:21:40;;;;;;;7.30;1.92;;;16.20;95.60;;;;;;5080245;28;20044;-73
2023/04/06 16:24:08;;;;;;;4.97;2.10;;;16.30;94.60;;;;;;5097266;28;20416;-74
2023/04/06 16:26:36;;;;;;;3.13;1.45;;;15.90;94.70;;;;;;5084259;28;20040;-74
2023/04/06 16:29:05;;;;;;;2.55;1.60;;;15.70;95.40;;;;;;5078697;28;20055;-73
2023/04/06 16:31:33;;;;;;;3.95;1.58;;;15.50;95.00;;;;;;5092849;28;20051;-73
2023/04/06 16:34:03;;;;;;;4.82;2.10;;;15.20;94.80;;;;;;5081515;28;20070;-73
2023/04/06 16:36:32;;;;;;;3.05;1.80;;;15.10;95.20;;;;;;5073287;28;20032;-74
2023/04/06 16:39:01;;;;;;;4.53;1.85;;;15.00;95.50;;;;;;5089696;28;20039;-73
2023/04/06 16:41:30;;;;;;;8.93;4.78;;;15.00;95.80;;;;;;5066284;28;20044;-74
2023/04/06 16:43:59;;;;;;;3.78;2.13;;;14.90;96.00;;;;;;5084054;28;20046;-74
2023/04/06 16:46:30;;;;;;;3.78;2.00;;;14.70;96.20;;;;;;5092556;28;20040;-74
2023/04/06 16:48:59;;;;;;;3.13;1.70;;;14.70;96.50;;;;;;5085861;28;20048;-74
2023/04/06 16:51:32;;;;;;;4.22;1.50;;;14.60;96.70;;;;;;5067654;28;20048;-73
2023/04/06 16:54:01;;;;;;;1.92;1.20;;;14.40;96.70;;;;;;5080854;28;20047;-73
2023/04/06 16:56:30;;;;;;;5.10;1.75;;;14.20;96.70;;;;;;5065281;28;20500;-74
2023/04/06 16:58:59;;;;;;;2.30;1.33;;;14.00;96.70;;;;;;5081438;28;20971;-74
2023/04/06 17:01:28;;;;;;;6.63;1.40;;;14.00;96.70;;;;;;5081464;28;20062;-73
2023/04/06 17:03:57;;;;;;;5.10;1.60;;;13.90;96.70;;;;;;5087683;28;20560;-73
2023/04/06 17:06:29;;;;;;;4.45;1.67;;;13.90;96.70;;;;;;5072806;28;20434;-74
2023/04/06 17:08:59;;;;;;;5.75;1.63;;;13.90;96.70;;;;;;5083019;28;21339;-73
2023/04/06 17:11:28;;;;;;;4.15;1.60;;;14.00;96.70;;;;;;5096958;28;20044;-74
2023/04/06 17:14:13;;;;;;;3.17;1.25;;;14.00;96.70;;;;;;5088702;28;20124;-74
2023/04/06 17:16:41;;;;;;;1.98;1.33;;;13.90;96.70;;;;;;5097996;28;20043;-75
2023/04/06 17:19:09;;;;;;;3.40;1.45;;;13.90;96.70;;;;;;5091402;28;20075;-74